createdAt,value
2022-11-23T00:00:50.503Z,-0.10
2022-11-23T00:03:20.342Z,-0.15
2022-11-23T00:05:50.202Z,-0.24
2022-11-23T00:08:20.009Z,-0.29
2022-11-23T00:10:49.826Z,-0.39
2022-11-23T00:13:19.353Z,-0.39
2022-11-23T00:15:49.247Z,-0.31
2022-11-23T00:18:18.910Z,-0.23
2022-11-23T00:20:48.724Z,-0.24
2022-11-23T00:23:18.547Z,-0.20
2022-11-23T00:25:48.356Z,-0.26
2022-11-23T00:28:18.205Z,-0.18
2022-11-23T00:30:51.407Z,0.20
2022-11-23T00:33:21.059Z,0.08
2022-11-23T00:36:05.843Z,-0.14
2022-11-23T00:38:35.929Z,-0.14
2022-11-23T00:41:12.896Z,-0.13
2022-11-23T00:43:43.011Z,-0.13
2022-11-23T00:46:18.883Z,-0.16
2022-11-23T00:48:51.299Z,-0.15
2022-11-23T00:51:23.386Z,-0.14
2022-11-23T00:53:53.454Z,-0.10
2022-11-23T00:56:24.483Z,-0.10
2022-11-23T00:58:56.530Z,-0.11
2022-11-23T01:01:30.906Z,-0.06
2022-11-23T01:04:03.638Z,-0.02
2022-11-23T01:06:36.532Z,0.05
2022-11-23T01:09:09.540Z,0.07
2022-11-23T01:11:39.655Z,0.10
2022-11-23T01:14:09.473Z,0.10
2022-11-23T01:16:41.013Z,0.13
2022-11-23T01:19:15.099Z,0.17
2022-11-23T01:21:45.268Z,0.17
2022-11-23T01:24:20.813Z,0.20
2022-11-23T01:26:55.168Z,0.22
2022-11-23T01:29:25.916Z,0.15
2022-11-23T01:31:55.971Z,0.21
2022-11-23T01:34:25.775Z,0.23
2022-11-23T01:36:55.589Z,0.59
2022-11-23T01:39:25.402Z,0.40
2022-11-23T01:41:55.510Z,0.41
2022-11-23T01:44:34.420Z,0.37
2022-11-23T01:47:09.130Z,0.25
2022-11-23T01:49:42.057Z,0.28
2022-11-23T01:52:15.009Z,0.34
2022-11-23T01:54:54.291Z,0.27
2022-11-23T01:57:35.726Z,0.25
2022-11-23T02:00:07.068Z,0.27
2022-11-23T02:02:44.965Z,0.34
2022-11-23T02:05:16.818Z,0.43
2022-11-23T02:07:50.417Z,0.49
2022-11-23T02:10:20.734Z,0.49
2022-11-23T02:12:50.897Z,0.48
2022-11-23T02:15:20.741Z,0.37
2022-11-23T02:17:51.201Z,0.35
2022-11-23T02:20:21.343Z,0.37
2022-11-23T02:22:57.140Z,0.37
2022-11-23T02:25:38.750Z,0.43
2022-11-23T02:28:08.907Z,0.37
2022-11-23T02:30:42.228Z,0.37
2022-11-23T02:33:13.166Z,0.45
2022-11-23T02:35:49.272Z,0.46
2022-11-23T02:38:19.849Z,0.47
2022-11-23T02:40:48.618Z,0.31
2022-11-23T02:43:19.388Z,0.38
2022-11-23T02:45:57.893Z,0.44
2022-11-23T02:48:28.096Z,0.51
2022-11-23T02:50:57.882Z,0.44
2022-11-23T02:53:27.767Z,0.28
2022-11-23T02:55:57.656Z,0.33
2022-11-23T02:58:27.468Z,0.26
2022-11-23T03:00:57.635Z,0.26
2022-11-23T03:03:27.457Z,0.20
2022-11-23T03:05:58.170Z,0.25
2022-11-23T03:08:29.161Z,0.24
2022-11-23T03:11:02.986Z,0.23
2022-11-23T03:13:32.890Z,0.24
2022-11-23T03:16:02.948Z,0.14
2022-11-23T03:18:32.937Z,0.21
2022-11-23T03:21:09.113Z,0.17
2022-11-23T03:23:40.137Z,0.13
2022-11-23T03:26:13.089Z,0.11
2022-11-23T03:28:44.647Z,-0.02
2022-11-23T03:31:15.149Z,-0.03
2022-11-23T03:33:45.120Z,0.03
2022-11-23T03:36:15.893Z,0.04
2022-11-23T03:38:47.502Z,0.02
2022-11-23T03:41:27.851Z,-0.12
2022-11-23T03:43:58.168Z,-0.04
2022-11-23T03:46:27.991Z,-0.03
2022-11-23T03:48:57.969Z,-0.02
2022-11-23T03:51:28.751Z,0.00
2022-11-23T03:53:58.588Z,-0.11
2022-11-23T03:56:30.072Z,-0.09
2022-11-23T03:58:59.899Z,-0.03
2022-11-23T04:01:30.748Z,-0.01
2022-11-23T04:04:02.344Z,0.04
2022-11-23T04:06:34.370Z,0.12
2022-11-23T04:09:06.688Z,0.14
2022-11-23T04:11:38.224Z,0.16
2022-11-23T04:14:09.812Z,0.16
2022-11-23T04:16:40.002Z,0.25
2022-11-23T04:19:09.941Z,0.17
2022-11-23T04:21:39.746Z,0.17
2022-11-23T04:24:10.245Z,0.21
2022-11-23T04:26:40.591Z,0.18
2022-11-23T04:29:11.395Z,0.14
2022-11-23T04:31:42.933Z,0.18
2022-11-23T04:34:17.248Z,0.22
2022-11-23T04:36:47.530Z,0.13
2022-11-23T04:39:17.332Z,0.18
2022-11-23T04:42:06.363Z,0.23
2022-11-23T04:44:36.346Z,0.23
2022-11-23T04:47:07.278Z,0.31
2022-11-23T04:49:38.814Z,0.33
2022-11-23T04:52:16.603Z,0.41
2022-11-23T04:54:50.103Z,0.42
2022-11-23T04:57:20.115Z,0.45
2022-11-23T04:59:50.691Z,0.48
2022-11-23T05:02:20.226Z,0.53
2022-11-23T05:04:55.046Z,0.58
2022-11-23T05:07:26.633Z,0.65
2022-11-23T05:09:58.195Z,0.64
2022-11-23T05:12:28.197Z,0.61
2022-11-23T05:14:58.050Z,0.65
2022-11-23T05:17:28.550Z,0.64
2022-11-23T05:19:58.539Z,0.63
2022-11-23T05:22:28.938Z,0.67
2022-11-23T05:24:58.847Z,0.67
2022-11-23T05:27:28.745Z,0.68
2022-11-23T05:29:58.902Z,0.73
2022-11-23T05:32:28.703Z,0.68
2022-11-23T05:34:59.340Z,0.68
2022-11-23T05:37:29.284Z,0.73
2022-11-23T05:40:00.603Z,0.69
2022-11-23T05:42:31.880Z,0.72
2022-11-23T05:45:04.487Z,0.70
2022-11-23T05:47:37.728Z,0.74
2022-11-23T05:50:08.620Z,0.73
2022-11-23T05:52:39.370Z,0.74
2022-11-23T05:55:09.204Z,0.80
2022-11-23T05:57:39.601Z,0.76
2022-11-23T06:00:13.033Z,0.82
2022-11-23T06:02:44.668Z,0.77
2022-11-23T06:05:16.000Z,0.72
2022-11-23T06:07:47.866Z,0.73
2022-11-23T06:10:19.495Z,0.73
2022-11-23T06:12:51.119Z,0.74
2022-11-23T06:15:21.267Z,0.78
2022-11-23T06:17:51.887Z,0.79
2022-11-23T06:20:22.914Z,0.77
2022-11-23T06:22:58.054Z,0.78
2022-11-23T06:25:27.944Z,0.75
2022-11-23T06:28:01.642Z,0.74
2022-11-23T06:30:33.333Z,0.83
2022-11-23T06:33:06.666Z,0.63
2022-11-23T06:35:38.570Z,0.63
2022-11-23T06:38:08.474Z,0.64
2022-11-23T06:40:38.294Z,0.63
2022-11-23T06:43:09.178Z,0.58
2022-11-23T06:45:41.070Z,0.61
2022-11-23T06:48:12.961Z,0.66
2022-11-23T06:50:44.493Z,0.69
2022-11-23T06:53:14.971Z,0.79
2022-11-23T06:55:46.490Z,0.82
2022-11-23T06:58:17.798Z,0.79
2022-11-23T07:00:47.774Z,0.92
2022-11-23T07:03:22.933Z,0.93
2022-11-23T07:05:54.663Z,0.92
2022-11-23T07:08:26.512Z,0.94
2022-11-23T07:10:59.450Z,1.00
2022-11-23T07:13:29.742Z,1.01
2022-11-23T07:16:00.766Z,1.04
2022-11-23T07:18:30.511Z,1.07
2022-11-23T07:21:02.001Z,1.12
2022-11-23T07:23:31.813Z,1.14
2022-11-23T07:26:03.882Z,1.13
2022-11-23T07:28:33.735Z,1.16
2022-11-23T07:31:03.629Z,1.17
2022-11-23T07:33:33.468Z,1.22
2022-11-23T07:36:04.618Z,1.29
2022-11-23T07:38:34.712Z,1.31
2022-11-23T07:41:13.098Z,1.28
2022-11-23T07:43:44.632Z,1.34
2022-11-23T07:46:15.946Z,1.34
2022-11-23T07:48:46.732Z,1.35
2022-11-23T07:51:20.821Z,1.38
2022-11-23T07:53:50.447Z,1.39
2022-11-23T07:56:20.691Z,1.46
2022-11-23T07:58:50.667Z,1.47
2022-11-23T08:01:20.881Z,1.51
2022-11-23T08:03:50.938Z,1.50
2022-11-23T08:06:20.567Z,1.53
2022-11-23T08:08:50.833Z,1.56
2022-11-23T08:11:20.810Z,1.51
2022-11-23T08:13:50.624Z,1.46
2022-11-23T08:16:20.163Z,1.49
2022-11-23T08:18:50.869Z,1.56
2022-11-23T08:21:20.395Z,1.57
2022-11-23T08:23:50.217Z,1.60
2022-11-23T08:26:19.735Z,1.65
2022-11-23T08:28:49.605Z,1.66
2022-11-23T08:31:19.302Z,1.66
2022-11-23T08:33:49.088Z,1.73
2022-11-23T08:36:18.927Z,1.73
2022-11-23T08:38:50.473Z,1.68
2022-11-23T08:41:21.267Z,1.75
2022-11-23T08:43:53.278Z,1.87
2022-11-23T08:46:22.989Z,1.84
2022-11-23T08:48:52.839Z,1.83
2022-11-23T08:51:23.186Z,1.85
2022-11-23T08:53:53.492Z,1.93
2022-11-23T08:56:23.022Z,1.87
2022-11-23T08:58:52.905Z,1.93
2022-11-23T09:01:22.962Z,1.97
2022-11-23T09:03:54.280Z,2.04
2022-11-23T09:06:25.477Z,2.02
2022-11-23T09:08:55.947Z,2.13
2022-11-23T09:11:26.420Z,2.12
2022-11-23T09:13:56.096Z,2.21
2022-11-23T09:16:28.456Z,2.17
2022-11-23T09:18:58.245Z,2.25
2022-11-23T09:21:29.625Z,2.31
2022-11-23T09:23:59.609Z,2.33
2022-11-23T09:26:30.666Z,2.42
2022-11-23T09:29:00.784Z,2.45
2022-11-23T09:31:30.600Z,2.47
2022-11-23T09:34:00.812Z,2.48
2022-11-23T09:36:31.102Z,2.55
2022-11-23T09:39:01.182Z,2.49
2022-11-23T09:41:49.090Z,2.47
2022-11-23T09:44:27.421Z,2.21
2022-11-23T09:47:00.364Z,2.28
2022-11-23T09:49:36.341Z,2.32
2022-11-23T09:52:12.683Z,2.50
2022-11-23T09:54:45.258Z,2.50
2022-11-23T09:57:18.133Z,2.54
2022-11-23T09:59:50.993Z,2.57
2022-11-23T10:02:29.474Z,2.61
2022-11-23T10:05:02.333Z,2.79
2022-11-23T10:08:08.225Z,2.63
2022-11-23T10:10:41.110Z,2.63
2022-11-23T10:13:19.539Z,2.67
2022-11-23T10:15:55.847Z,2.65
2022-11-23T10:18:37.277Z,2.71
2022-11-23T10:21:30.284Z,2.62
2022-11-23T10:24:20.093Z,2.62
2022-11-23T10:26:51.388Z,2.64
2022-11-23T10:29:27.607Z,2.64
2022-11-23T10:31:59.239Z,2.44
2022-11-23T10:34:35.156Z,2.63
2022-11-23T10:37:16.442Z,2.65
2022-11-23T10:39:46.288Z,2.71
2022-11-23T10:42:31.044Z,2.77
2022-11-23T10:45:05.684Z,2.62
2022-11-23T10:47:41.259Z,2.72
2022-11-23T10:50:19.819Z,2.84
2022-11-23T10:52:57.868Z,2.90
2022-11-23T10:55:31.365Z,2.96
2022-11-23T10:58:01.732Z,3.06
2022-11-23T11:00:31.819Z,2.90
2022-11-23T11:03:03.413Z,3.17
2022-11-23T11:08:22.768Z,3.06
2022-11-23T11:11:08.440Z,3.15
2022-11-23T11:13:47.068Z,3.11
2022-11-23T11:16:34.874Z,3.27
2022-11-23T11:19:30.157Z,3.35
2022-11-23T11:22:02.288Z,3.47
2022-11-23T11:24:40.708Z,3.54
2022-11-23T11:27:19.177Z,3.28
2022-11-23T11:29:54.232Z,3.41
2022-11-23T11:32:29.297Z,3.41
2022-11-23T11:35:05.188Z,3.49
2022-11-23T11:37:46.906Z,3.51
2022-11-23T11:40:22.804Z,3.53
2022-11-23T11:43:07.570Z,3.66
2022-11-23T11:45:59.652Z,3.81
2022-11-23T11:48:23.065Z,3.49
2022-11-23T11:51:07.649Z,3.52
2022-11-23T11:53:56.653Z,3.87
2022-11-23T11:56:41.610Z,3.87
2022-11-23T11:59:14.549Z,3.80
2022-11-23T12:01:50.156Z,3.79
2022-11-23T12:04:22.731Z,4.15
2022-11-23T12:06:58.369Z,4.10
2022-11-23T12:09:31.846Z,4.36
2022-11-23T12:12:02.610Z,4.36
2022-11-23T12:14:33.053Z,4.16
2022-11-23T12:17:35.010Z,4.44
2022-11-23T12:20:39.625Z,4.47
2022-11-23T12:23:34.856Z,4.27
2022-11-23T12:26:18.785Z,4.35
2022-11-23T12:28:51.649Z,4.26
2022-11-23T12:31:37.933Z,4.31
2022-11-23T12:34:26.568Z,4.31
2022-11-23T12:37:04.970Z,4.20
2022-11-23T12:39:54.534Z,4.14
2022-11-23T12:42:36.383Z,4.26
2022-11-23T12:45:10.027Z,4.22
2022-11-23T12:47:51.503Z,4.23
2022-11-23T12:50:29.898Z,4.08
2022-11-23T12:53:14.656Z,4.10
2022-11-23T12:55:59.652Z,4.17
2022-11-23T12:58:32.035Z,4.12
2022-11-23T13:01:18.124Z,4.05
2022-11-23T13:04:00.398Z,4.00
2022-11-23T13:07:20.786Z,3.90
2022-11-23T13:09:29.569Z,3.83
2022-11-23T13:12:18.974Z,3.92
2022-11-23T13:14:57.599Z,3.77
2022-11-23T13:17:36.403Z,3.70
2022-11-23T13:20:21.629Z,3.60
2022-11-23T13:22:53.232Z,3.76
2022-11-23T13:25:29.163Z,3.70
2022-11-23T13:28:30.375Z,3.55
2022-11-23T13:31:31.271Z,3.63
2022-11-23T13:34:03.954Z,3.63
2022-11-23T13:37:10.510Z,3.67
2022-11-23T13:39:29.517Z,3.67
2022-11-23T13:42:02.228Z,3.69
2022-11-23T13:44:33.588Z,3.66
2022-11-23T13:47:14.020Z,3.68
2022-11-23T13:49:53.991Z,3.64
2022-11-23T13:52:27.313Z,3.63
2022-11-23T13:55:09.829Z,3.63
2022-11-23T13:57:44.030Z,3.49
2022-11-23T14:00:35.986Z,3.65
2022-11-23T14:03:43.182Z,3.64
2022-11-23T14:06:24.557Z,3.62
2022-11-23T14:09:06.214Z,3.62
2022-11-23T14:11:51.652Z,3.54
2022-11-23T14:14:24.225Z,3.59
2022-11-23T14:17:09.544Z,3.55
2022-11-23T14:20:00.469Z,3.40
2022-11-23T14:22:39.162Z,3.46
2022-11-23T14:25:14.833Z,3.40
2022-11-23T14:27:56.752Z,3.29
2022-11-23T14:30:47.744Z,3.29
2022-11-23T14:33:32.087Z,3.29
2022-11-23T14:36:13.841Z,3.14
2022-11-23T14:39:08.546Z,3.03
2022-11-23T14:41:40.720Z,3.09
2022-11-23T14:44:13.512Z,3.10
2022-11-23T14:47:07.403Z,3.06
2022-11-23T14:49:38.635Z,3.18
2022-11-23T14:52:10.722Z,2.99
2022-11-23T14:54:41.504Z,2.99
2022-11-23T14:57:16.346Z,2.95
2022-11-23T14:59:49.214Z,2.90
2022-11-23T15:02:36.793Z,2.78
2022-11-23T15:05:15.517Z,2.77
2022-11-23T15:08:05.439Z,2.75
2022-11-23T15:10:59.177Z,2.70
2022-11-23T15:13:33.191Z,2.63
2022-11-23T15:16:05.351Z,2.59
2022-11-23T15:18:41.271Z,2.56
2022-11-23T15:21:23.903Z,2.56
2022-11-23T15:23:57.300Z,2.54
2022-11-23T15:26:48.070Z,2.48
2022-11-23T15:29:08.653Z,2.48
2022-11-23T15:31:43.994Z,2.49
2022-11-23T15:34:18.690Z,2.49
2022-11-23T15:36:53.554Z,2.46
2022-11-23T15:39:25.932Z,2.45
2022-11-23T15:41:56.343Z,2.36
2022-11-23T15:44:32.743Z,2.36
2022-11-23T15:47:07.775Z,2.36
2022-11-23T15:49:41.845Z,2.32
2022-11-23T15:52:17.201Z,2.32
2022-11-23T15:54:47.559Z,2.29
2022-11-23T15:57:23.627Z,2.28
2022-11-23T15:59:59.382Z,2.27
2022-11-23T16:02:32.145Z,2.21
2022-11-23T16:05:12.663Z,2.22
2022-11-23T16:07:59.646Z,2.16
2022-11-23T16:10:31.926Z,2.14
2022-11-23T16:13:05.758Z,2.11
2022-11-23T16:15:40.577Z,2.08
2022-11-23T16:18:22.790Z,2.06
2022-11-23T16:20:58.557Z,1.97
2022-11-23T16:23:31.390Z,1.95
2022-11-23T16:26:04.273Z,1.92
2022-11-23T16:28:36.656Z,1.80
2022-11-23T16:31:09.857Z,1.78
2022-11-23T16:33:39.717Z,1.75
2022-11-23T16:36:09.422Z,1.70
2022-11-23T16:38:40.439Z,1.69
2022-11-23T16:41:10.086Z,1.70
2022-11-23T16:43:39.922Z,1.66
2022-11-23T16:46:11.212Z,1.58
2022-11-23T16:48:43.158Z,1.52
2022-11-23T16:51:15.752Z,1.53
2022-11-23T16:54:12.447Z,1.45
2022-11-23T16:56:24.296Z,1.43
2022-11-23T16:58:55.306Z,1.40
2022-11-23T17:01:27.436Z,1.34
2022-11-23T17:03:57.629Z,1.31
2022-11-23T17:06:27.889Z,1.25
2022-11-23T17:09:06.152Z,1.21
2022-11-23T17:11:30.369Z,1.12
2022-11-23T17:14:00.347Z,1.01
2022-11-23T17:16:31.744Z,0.93
2022-11-23T17:19:01.554Z,0.93
2022-11-23T17:21:31.377Z,0.78
2022-11-23T17:24:01.551Z,0.69
2022-11-23T17:26:39.939Z,0.71
2022-11-23T17:29:15.210Z,0.65
2022-11-23T17:31:45.692Z,0.64
2022-11-23T17:34:16.442Z,0.49
2022-11-23T17:36:48.465Z,0.49
2022-11-23T17:39:28.459Z,0.44
2022-11-23T17:42:04.362Z,0.41
2022-11-23T17:44:29.773Z,0.48
2022-11-23T17:47:00.919Z,0.47
2022-11-23T17:49:31.365Z,0.47
2022-11-23T17:52:02.137Z,0.47
2022-11-23T17:54:31.946Z,0.43
2022-11-23T17:57:01.765Z,0.37
2022-11-23T17:59:31.864Z,0.33
2022-11-23T18:02:01.981Z,0.26
2022-11-23T18:04:31.853Z,0.23
2022-11-23T18:07:01.759Z,0.18
2022-11-23T18:09:32.160Z,0.21
2022-11-23T18:12:02.563Z,0.18
2022-11-23T18:14:36.798Z,-0.10
2022-11-23T18:17:08.681Z,-0.10
2022-11-23T18:19:38.496Z,-0.06
2022-11-23T18:22:08.914Z,-0.10
2022-11-23T18:24:38.843Z,-0.17
2022-11-23T18:27:08.742Z,-0.28
2022-11-23T18:29:40.300Z,-0.35
2022-11-23T18:32:10.693Z,-0.38
2022-11-23T18:34:40.225Z,-0.43
2022-11-23T18:37:11.355Z,-0.50
2022-11-23T18:39:41.560Z,-0.66
2022-11-23T18:42:11.643Z,-0.66
2022-11-23T18:44:41.793Z,-0.71
2022-11-23T18:47:11.392Z,-0.74
2022-11-23T18:49:43.814Z,-0.72
2022-11-23T18:52:14.050Z,-0.81
2022-11-23T18:54:44.247Z,-0.82
2022-11-23T18:57:15.433Z,-0.79
2022-11-23T19:00:01.826Z,-0.79
2022-11-23T19:02:17.090Z,-0.86
2022-11-23T19:04:46.899Z,-0.86
2022-11-23T19:07:25.095Z,-0.87
2022-11-23T19:09:50.893Z,-0.89
2022-11-23T19:12:20.647Z,-0.86
2022-11-23T19:14:51.417Z,-0.86
2022-11-23T19:17:21.340Z,-0.86
2022-11-23T19:19:51.164Z,-0.86
2022-11-23T19:22:20.752Z,-0.83
2022-11-23T19:24:50.747Z,-0.83
2022-11-23T19:27:20.618Z,-0.88
2022-11-23T19:29:50.735Z,-0.95
2022-11-23T19:32:20.571Z,-0.99
2022-11-23T19:34:51.237Z,-1.01
2022-11-23T19:37:20.774Z,-0.98
2022-11-23T19:39:51.070Z,-1.02
2022-11-23T19:42:21.235Z,-1.07
2022-11-23T19:44:51.044Z,-1.07
2022-11-23T19:47:22.948Z,-1.09
2022-11-23T19:49:51.455Z,-1.09
2022-11-23T19:52:21.169Z,-1.19
2022-11-23T19:54:51.893Z,-1.15
2022-11-23T19:57:21.605Z,-1.10
2022-11-23T19:59:51.425Z,-1.10
2022-11-23T20:02:26.455Z,-1.11
2022-11-23T20:04:57.543Z,-1.16
2022-11-23T20:07:28.566Z,-1.08
2022-11-23T20:09:58.493Z,-1.11
2022-11-23T20:12:28.358Z,-1.18
2022-11-23T20:14:58.281Z,-1.13
2022-11-23T20:17:28.024Z,-1.15
2022-11-23T20:19:57.830Z,-1.10
2022-11-23T20:22:27.687Z,-1.15
2022-11-23T20:24:59.446Z,-1.18
2022-11-23T20:27:29.067Z,-1.16
2022-11-23T20:29:58.917Z,-1.25
2022-11-23T20:32:28.759Z,-1.22
2022-11-23T20:34:58.585Z,-1.21
2022-11-23T20:37:28.407Z,-1.21
2022-11-23T20:39:58.240Z,-1.23
2022-11-23T20:42:31.558Z,-1.24
2022-11-23T20:45:01.390Z,-1.22
2022-11-23T20:47:31.322Z,-1.24
2022-11-23T20:50:01.164Z,-1.20
2022-11-23T20:52:30.994Z,-1.20
2022-11-23T20:55:01.156Z,-1.23
2022-11-23T20:57:31.851Z,-1.23
2022-11-23T21:00:01.658Z,-1.23
2022-11-23T21:02:31.528Z,-1.27
2022-11-23T21:05:01.554Z,-1.25
2022-11-23T21:07:31.799Z,-1.22
2022-11-23T21:10:01.617Z,-1.21
2022-11-23T21:12:50.692Z,-1.18
2022-11-23T21:15:20.707Z,-1.15
2022-11-23T21:17:52.032Z,-1.09
2022-11-23T21:20:22.814Z,-1.14
2022-11-23T21:22:53.301Z,-1.22
2022-11-23T21:25:23.144Z,-1.26
2022-11-23T21:27:53.249Z,-1.28
2022-11-23T21:30:22.956Z,-1.29
2022-11-23T21:32:53.702Z,-1.34
2022-11-23T21:35:23.640Z,-1.35
2022-11-23T21:37:53.501Z,-1.32
2022-11-23T21:40:27.380Z,-1.35
2022-11-23T21:42:58.473Z,-1.34
2022-11-23T21:45:28.302Z,-1.34
2022-11-23T21:47:58.466Z,-1.43
2022-11-23T21:50:29.273Z,-1.43
2022-11-23T21:52:59.099Z,-1.40
2022-11-23T21:55:29.987Z,-1.41
2022-11-23T21:57:59.817Z,-1.40
2022-11-23T22:00:31.497Z,-1.40
2022-11-23T22:03:01.711Z,-1.41
2022-11-23T22:05:31.603Z,-1.36
2022-11-23T22:10:34.409Z,-1.36
2022-11-23T22:13:04.605Z,-1.36
2022-11-23T22:15:34.518Z,-1.30
2022-11-23T22:18:04.443Z,-1.28
2022-11-23T22:20:37.674Z,-1.28
2022-11-23T22:23:07.613Z,-1.27
2022-11-23T22:25:37.669Z,-1.32
2022-11-23T22:28:07.342Z,-1.36
2022-11-23T22:30:37.310Z,-1.41
2022-11-23T22:33:07.227Z,-1.51
2022-11-23T22:35:37.163Z,-1.53
2022-11-23T22:38:07.085Z,-1.55
2022-11-23T22:40:38.686Z,-1.63
2022-11-23T22:43:08.293Z,-1.67
2022-11-23T22:45:38.692Z,-1.61
2022-11-23T22:48:08.498Z,-1.75
2022-11-23T22:50:38.638Z,-1.75
2022-11-23T22:53:08.632Z,-1.78
2022-11-23T22:55:39.002Z,-1.81
2022-11-23T22:58:08.688Z,-1.86
2022-11-23T23:00:38.665Z,-1.94
2022-11-23T23:03:08.629Z,-2.08
2022-11-23T23:05:38.928Z,-2.02
2022-11-23T23:08:08.867Z,-2.01
2022-11-23T23:10:39.898Z,-2.04
2022-11-23T23:13:09.809Z,-2.04
2022-11-23T23:15:40.038Z,-2.07
2022-11-23T23:18:09.711Z,-2.06
2022-11-23T23:20:40.266Z,-2.03
2022-11-23T23:23:10.113Z,-2.02
2022-11-23T23:25:39.959Z,-2.07
2022-11-23T23:28:09.718Z,-2.01
2022-11-23T23:30:39.620Z,-2.00
2022-11-23T23:33:09.210Z,-2.04
2022-11-23T23:35:39.633Z,-2.05
2022-11-23T23:38:09.226Z,-2.01
2022-11-23T23:40:39.441Z,-1.95
2022-11-23T23:43:09.084Z,-1.90
2022-11-23T23:45:38.999Z,-1.85
2022-11-23T23:48:08.952Z,-1.82
2022-11-23T23:50:38.889Z,-1.79
2022-11-23T23:53:08.807Z,-1.72
2022-11-23T23:55:39.006Z,-1.66
2022-11-23T23:58:08.949Z,-1.61
